Time;durP1;ratioP1;P1;durP2;ratioP2;P2;SDS_P1;SDS_P2;PMS_P1;PMS_P2;Temp;Humidity;BMP_temperature;BMP_pressure;BME280_temperature;BME280_humidity;BME280_pressure;Samples;Min_cycle;Max_cycle;Signal;HPM_P1;HPM_P2
2021/08/13 00:00:43;;;;;;;39.07;36.77;;;;;;;;;;5055585;28;20448;-69
2021/08/13 00:03:13;;;;;;;40.33;38.13;;;;;;;;;;5037033;28;20460;-69
2021/08/13 00:05:41;;;;;;;39.40;37.10;;;;;;;;;;5055744;28;20950;-69
2021/08/13 00:08:09;;;;;;;41.60;39.10;;;;;;;;;;5057608;28;20483;-69
2021/08/13 00:10:36;;;;;;;40.30;38.10;;;;;;;;;;5058038;28;20487;-68
2021/08/13 00:13:03;;;;;;;41.17;38.87;;;;;;;;;;5056239;28;20470;-69
2021/08/13 00:15:30;;;;;;;41.40;39.13;;;;;;;;;;5037089;28;20459;-69
2021/08/13 00:17:57;;;;;;;41.87;39.57;;;;;;;;;;5035456;28;20795;-69
2021/08/13 00:20:24;;;;;;;39.90;37.70;;;;;;;;;;5036715;28;20867;-69
2021/08/13 00:22:53;;;;;;;40.87;38.67;;;;;;;;;;5036013;28;20487;-69
2021/08/13 00:25:21;;;;;;;42.53;40.13;;;;;;;;;;5035694;28;20950;-69
2021/08/13 00:27:48;;;;;;;42.30;39.87;;;;;;;;;;5035918;28;20448;-68
2021/08/13 00:30:15;;;;;;;42.00;39.70;;;;;;;;;;5035720;28;20455;-68
2021/08/13 00:32:42;;;;;;;41.87;39.47;;;;;;;;;;5035311;28;20491;-68
2021/08/13 00:35:09;;;;;;;42.73;40.43;;;;;;;;;;5038359;28;20452;-68
2021/08/13 00:37:37;;;;;;;42.43;40.10;;;;;;;;;;5035297;28;20455;-68
2021/08/13 00:40:07;;;;;;;42.77;40.37;;;;;;;;;;5034439;28;20456;-69
2021/08/13 00:42:34;;;;;;;43.03;40.73;;;;;;;;;;5052330;28;20456;-68
2021/08/13 00:45:01;;;;;;;43.00;40.70;;;;;;;;;;5055439;28;20833;-68
2021/08/13 00:47:28;;;;;;;43.03;40.73;;;;;;;;;;5037575;28;20461;-68
2021/08/13 00:49:55;;;;;;;43.97;41.60;;;;;;;;;;5031181;28;20489;-69
2021/08/13 00:52:22;;;;;;;43.70;41.30;;;;;;;;;;5046013;28;20959;-68
2021/08/13 00:54:50;;;;;;;42.40;40.10;;;;;;;;;;5055349;28;20455;-69
2021/08/13 00:57:18;;;;;;;45.40;43.00;;;;;;;;;;5040375;28;20478;-68
2021/08/13 00:59:46;;;;;;;45.23;42.83;;;;;;;;;;5039761;28;20440;-69
2021/08/13 01:02:13;;;;;;;45.20;42.80;;;;;;;;;;5040857;28;20455;-68
2021/08/13 01:04:40;;;;;;;45.00;42.60;;;;;;;;;;5034854;28;20465;-69
2021/08/13 01:07:08;;;;;;;47.70;44.80;;;;;;;;;;5051062;28;20444;-70
2021/08/13 01:09:36;;;;;;;45.30;42.60;;;;;;;;;;5054362;28;20479;-69
2021/08/13 01:12:04;;;;;;;46.33;43.60;;;;;;;;;;5043981;28;20476;-69
2021/08/13 01:14:44;;;;;;;45.33;42.90;;;;;;;;;;5034148;28;20467;-70
2021/08/13 01:17:12;;;;;;;47.97;45.37;;;;;;;;;;5041412;28;20459;-69
2021/08/13 01:19:43;;;;;;;47.70;45.10;;;;;;;;;;5038114;28;20452;-69
2021/08/13 01:22:12;;;;;;;47.23;44.30;;;;;;;;;;5044231;28;20440;-71
2021/08/13 01:24:42;;;;;;;47.00;44.50;;;;;;;;;;5058167;28;20490;-69
2021/08/13 01:27:10;;;;;;;50.50;47.70;;;;;;;;;;5050994;28;20452;-69
2021/08/13 01:29:43;;;;;;;51.23;48.10;;;;;;;;;;5018848;28;20489;-69
2021/08/13 01:32:25;;;;;;;52.80;50.00;;;;;;;;;;5028627;28;20459;-69
2021/08/13 01:34:54;;;;;;;50.90;48.20;;;;;;;;;;5039320;28;20467;-69
2021/08/13 01:37:22;;;;;;;51.10;48.40;;;;;;;;;;5041347;28;20462;-69
2021/08/13 01:39:49;;;;;;;52.77;49.97;;;;;;;;;;5036026;28;20452;-69
2021/08/13 01:42:17;;;;;;;51.43;48.70;;;;;;;;;;5042874;28;20448;-69
2021/08/13 01:44:45;;;;;;;51.77;48.97;;;;;;;;;;5055077;28;21004;-69
2021/08/13 01:47:12;;;;;;;54.27;51.47;;;;;;;;;;5047098;28;20457;-69
2021/08/13 01:49:41;;;;;;;53.73;50.67;;;;;;;;;;5035822;28;20476;-69
2021/08/13 01:52:08;;;;;;;55.23;52.20;;;;;;;;;;5033994;28;20881;-69
2021/08/13 01:54:36;;;;;;;53.47;50.27;;;;;;;;;;5034959;28;20635;-70
2021/08/13 01:57:04;;;;;;;55.67;52.47;;;;;;;;;;5053382;28;20961;-69
2021/08/13 01:59:33;;;;;;;55.87;52.87;;;;;;;;;;5052545;28;20444;-69
2021/08/13 02:02:01;;;;;;;53.73;50.93;;;;;;;;;;5044501;28;20823;-70
2021/08/13 02:04:28;;;;;;;53.00;50.10;;;;;;;;;;5048124;28;20485;-70
2021/08/13 02:06:57;;;;;;;53.73;50.93;;;;;;;;;;5033821;28;20459;-70
2021/08/13 02:09:24;;;;;;;55.30;52.37;;;;;;;;;;5033366;28;20490;-70
2021/08/13 02:11:51;;;;;;;55.40;52.47;;;;;;;;;;5033369;28;20444;-70
2021/08/13 02:14:18;;;;;;;55.03;52.10;;;;;;;;;;5033698;28;21030;-69
2021/08/13 02:16:47;;;;;;;55.40;52.27;;;;;;;;;;5033757;28;20449;-70
2021/08/13 02:19:16;;;;;;;59.53;56.27;;;;;;;;;;5034348;28;20946;-70
2021/08/13 02:21:46;;;;;;;58.80;55.50;;;;;;;;;;5034063;28;20455;-70
2021/08/13 02:24:17;;;;;;;59.37;56.10;;;;;;;;;;5034294;22;20513;-64
2021/08/13 02:26:44;;;;;;;56.83;53.70;;;;;;;;;;4997014;28;20464;-62
2021/08/13 02:29:11;;;;;;;58.33;55.13;;;;;;;;;;4988027;28;20482;-62
2021/08/13 02:31:39;;;;;;;57.30;54.20;;;;;;;;;;4992012;28;20926;-61
2021/08/13 02:34:06;;;;;;;57.67;54.67;;;;;;;;;;5004715;28;20504;-61
2021/08/13 02:36:36;;;;;;;58.77;55.67;;;;;;;;;;4992073;28;20461;-62
2021/08/13 02:39:06;;;;;;;59.03;55.90;;;;;;;;;;4991799;28;20450;-61
2021/08/13 02:41:35;;;;;;;62.03;58.73;;;;;;;;;;4992145;28;20450;-62
2021/08/13 02:44:03;;;;;;;63.37;59.87;;;;;;;;;;4993447;28;20477;-62
2021/08/13 02:46:33;;;;;;;60.77;57.47;;;;;;;;;;4992303;28;20450;-62
2021/08/13 02:49:01;;;;;;;60.00;56.90;;;;;;;;;;4999267;28;20891;-62
2021/08/13 02:51:31;;;;;;;60.93;57.30;;;;;;;;;;4991965;28;20461;-62
2021/08/13 02:53:59;;;;;;;62.80;59.33;;;;;;;;;;5005059;28;20481;-64
2021/08/13 02:56:27;;;;;;;63.13;59.80;;;;;;;;;;5011800;28;20449;-64
2021/08/13 02:58:57;;;;;;;65.63;62.07;;;;;;;;;;5010358;28;20455;-64
2021/08/13 03:01:25;;;;;;;66.93;63.23;;;;;;;;;;4994634;28;20454;-62
2021/08/13 03:03:53;;;;;;;66.33;62.83;;;;;;;;;;4992387;28;21054;-62
2021/08/13 03:06:21;;;;;;;66.67;63.07;;;;;;;;;;4993385;28;20484;-62
2021/08/13 03:08:49;;;;;;;62.10;58.57;;;;;;;;;;4997385;28;20492;-63
2021/08/13 03:11:16;;;;;;;66.90;63.50;;;;;;;;;;4999293;28;20459;-64
2021/08/13 03:13:44;;;;;;;64.03;60.67;;;;;;;;;;4992195;28;20668;-64
2021/08/13 03:16:13;;;;;;;63.73;60.33;;;;;;;;;;4991942;28;20460;-64
2021/08/13 03:18:41;;;;;;;61.57;58.03;;;;;;;;;;4992124;28;20453;-64
2021/08/13 03:21:09;;;;;;;61.27;57.87;;;;;;;;;;4991568;28;20450;-64
2021/08/13 03:23:38;;;;;;;63.00;57.90;;;;;;;;;;4993818;28;20859;-64
2021/08/13 03:26:06;;;;;;;62.60;59.10;;;;;;;;;;5011207;28;20831;-64
2021/08/13 03:28:33;;;;;;;62.43;58.17;;;;;;;;;;5010049;28;20455;-64
2021/08/13 03:31:00;;;;;;;65.47;61.67;;;;;;;;;;4991997;28;20459;-64
2021/08/13 03:33:28;;;;;;;61.70;58.10;;;;;;;;;;5003691;28;20850;-64
2021/08/13 03:35:56;;;;;;;66.37;61.73;;;;;;;;;;4989867;28;20486;-65
2021/08/13 03:38:23;;;;;;;65.43;61.73;;;;;;;;;;4994648;28;20465;-65
2021/08/13 03:40:51;;;;;;;62.60;59.10;;;;;;;;;;4995644;28;20821;-65
2021/08/13 03:43:18;;;;;;;65.53;61.67;;;;;;;;;;4995216;28;20470;-64
2021/08/13 03:45:45;;;;;;;62.43;58.90;;;;;;;;;;4996853;28;20490;-62
2021/08/13 03:48:12;;;;;;;65.23;61.53;;;;;;;;;;5014784;28;20946;-62
2021/08/13 03:50:40;;;;;;;64.67;61.00;;;;;;;;;;4998941;28;20490;-62
2021/08/13 03:53:07;;;;;;;63.47;59.13;;;;;;;;;;4995292;28;20474;-62
2021/08/13 03:55:34;;;;;;;63.60;59.60;;;;;;;;;;4997724;28;20481;-62
2021/08/13 03:58:02;;;;;;;63.50;59.80;;;;;;;;;;4995051;28;20454;-62
2021/08/13 04:00:29;;;;;;;67.20;63.40;;;;;;;;;;4997597;28;20451;-64
2021/08/13 04:02:56;;;;;;;159.77;152.37;;;;;;;;;;4994732;28;20946;-62
2021/08/13 04:05:23;;;;;;;256.37;244.27;;;;;;;;;;4995407;28;20463;-64
2021/08/13 04:07:51;;;;;;;229.20;216.67;;;;;;;;;;4995429;28;20826;-63
2021/08/13 04:10:19;;;;;;;199.87;188.23;;;;;;;;;;4995396;28;20478;-63
2021/08/13 04:12:46;;;;;;;214.57;202.57;;;;;;;;;;4995238;28;20465;-64
2021/08/13 04:15:13;;;;;;;226.03;213.63;;;;;;;;;;5000930;28;20464;-63
2021/08/13 04:17:40;;;;;;;220.43;207.50;;;;;;;;;;4995192;28;20545;-63
2021/08/13 04:20:08;;;;;;;222.23;208.53;;;;;;;;;;4995538;28;20466;-63
2021/08/13 04:22:35;;;;;;;230.83;216.83;;;;;;;;;;5003970;28;20454;-62
2021/08/13 04:25:04;;;;;;;211.70;198.10;;;;;;;;;;5011158;28;20489;-61
2021/08/13 04:27:31;;;;;;;201.70;188.20;;;;;;;;;;5002824;28;20450;-61
2021/08/13 04:29:58;;;;;;;203.40;189.70;;;;;;;;;;4995435;28;20488;-62
2021/08/13 04:32:25;;;;;;;205.30;191.40;;;;;;;;;;4996306;28;20458;-63
2021/08/13 04:34:52;;;;;;;203.57;189.87;;;;;;;;;;4994808;28;20474;-61
2021/08/13 04:37:19;;;;;;;197.83;183.47;;;;;;;;;;4995168;28;20458;-62
2021/08/13 04:39:47;;;;;;;222.90;207.80;;;;;;;;;;4994502;28;20455;-63
2021/08/13 04:42:15;;;;;;;209.13;194.73;;;;;;;;;;4996294;28;20461;-64
2021/08/13 04:44:42;;;;;;;207.43;193.03;;;;;;;;;;5012325;28;20488;-64
2021/08/13 04:47:09;;;;;;;213.67;199.07;;;;;;;;;;5013908;28;20472;-64
2021/08/13 04:49:37;;;;;;;200.73;186.40;;;;;;;;;;5005856;28;20485;-63
2021/08/13 04:52:05;;;;;;;192.87;178.67;;;;;;;;;;4994298;28;20454;-65
2021/08/13 04:54:32;;;;;;;192.60;177.80;;;;;;;;;;4997981;28;20915;-65
2021/08/13 04:57:00;;;;;;;211.47;195.93;;;;;;;;;;5002927;28;20473;-63
2021/08/13 04:59:29;;;;;;;216.13;200.17;;;;;;;;;;4994590;28;20454;-63
2021/08/13 05:01:56;;;;;;;232.37;215.47;;;;;;;;;;4993903;28;20480;-63
2021/08/13 05:04:23;;;;;;;233.00;215.90;;;;;;;;;;4994245;28;20570;-63
2021/08/13 05:06:50;;;;;;;227.23;210.63;;;;;;;;;;4993492;28;20450;-64
2021/08/13 05:09:17;;;;;;;225.80;209.40;;;;;;;;;;5003052;28;20450;-63
2021/08/13 05:11:44;;;;;;;242.33;225.53;;;;;;;;;;5007943;28;20454;-64
2021/08/13 05:14:11;;;;;;;243.37;226.20;;;;;;;;;;5002716;28;20469;-63
2021/08/13 05:16:40;;;;;;;250.30;232.57;;;;;;;;;;5013360;28;20822;-63
2021/08/13 05:19:07;;;;;;;259.37;240.67;;;;;;;;;;5005790;28;20819;-63
2021/08/13 05:21:38;;;;;;;270.40;251.87;;;;;;;;;;4993446;28;20459;-64
2021/08/13 05:24:05;;;;;;;284.07;265.63;;;;;;;;;;4993842;28;20878;-65
2021/08/13 05:26:32;;;;;;;277.93;259.50;;;;;;;;;;5006644;28;21051;-64
2021/08/13 05:28:59;;;;;;;294.20;275.27;;;;;;;;;;4997314;28;20950;-65
2021/08/13 05:31:26;;;;;;;301.60;282.83;;;;;;;;;;4992969;28;20496;-64
2021/08/13 05:33:55;;;;;;;318.83;299.07;;;;;;;;;;5006057;28;20477;-64
2021/08/13 05:36:22;;;;;;;320.17;300.07;;;;;;;;;;5010283;28;20458;-64
2021/08/13 05:38:49;;;;;;;346.47;326.23;;;;;;;;;;5004976;28;20463;-65
2021/08/13 05:41:16;;;;;;;339.63;319.43;;;;;;;;;;5012441;28;20452;-65
2021/08/13 05:43:43;;;;;;;334.03;314.53;;;;;;;;;;5001752;28;20478;-65
2021/08/13 05:46:11;;;;;;;333.87;314.00;;;;;;;;;;5002202;28;20963;-66
2021/08/13 05:48:38;;;;;;;335.17;314.77;;;;;;;;;;5013066;28;20470;-64
2021/08/13 05:51:07;;;;;;;339.43;319.73;;;;;;;;;;5003569;28;20478;-62
2021/08/13 05:53:34;;;;;;;354.00;334.27;;;;;;;;;;4999624;28;20480;-63
2021/08/13 05:56:01;;;;;;;365.00;345.17;;;;;;;;;;5009470;28;20957;-63
2021/08/13 05:58:28;;;;;;;365.33;345.73;;;;;;;;;;4993371;28;20451;-63
2021/08/13 06:00:55;;;;;;;381.47;362.20;;;;;;;;;;4993015;28;20458;-63
2021/08/13 06:03:22;;;;;;;365.83;346.70;;;;;;;;;;4992402;28;20470;-63
2021/08/13 06:05:49;;;;;;;348.83;330.87;;;;;;;;;;4992701;28;20470;-63
2021/08/13 06:08:18;;;;;;;333.27;316.00;;;;;;;;;;4993999;28;20465;-63
2021/08/13 06:10:45;;;;;;;286.47;270.57;;;;;;;;;;5012526;28;20488;-63
2021/08/13 06:13:12;;;;;;;287.53;272.23;;;;;;;;;;5008188;28;20999;-63
2021/08/13 06:15:39;;;;;;;292.40;277.60;;;;;;;;;;5012476;28;20941;-63
2021/08/13 06:18:06;;;;;;;327.30;311.17;;;;;;;;;;5005723;28;20465;-63
2021/08/13 06:20:33;;;;;;;271.53;258.57;;;;;;;;;;4992784;28;20972;-63
2021/08/13 06:23:01;;;;;;;268.07;255.27;;;;;;;;;;4998519;28;20460;-63
2021/08/13 06:25:29;;;;;;;265.10;252.37;;;;;;;;;;5013038;28;21004;-63
2021/08/13 06:27:56;;;;;;;260.70;248.20;;;;;;;;;;5007024;28;20865;-63
2021/08/13 06:30:24;;;;;;;244.10;232.33;;;;;;;;;;4993552;28;20482;-63
2021/08/13 06:32:53;;;;;;;231.23;219.93;;;;;;;;;;4994573;28;20461;-63
2021/08/13 06:35:20;;;;;;;230.50;219.70;;;;;;;;;;4993525;28;20997;-63
2021/08/13 06:37:47;;;;;;;218.70;208.50;;;;;;;;;;4994536;28;20450;-63
2021/08/13 06:40:15;;;;;;;210.57;200.77;;;;;;;;;;5010245;28;20452;-62
2021/08/13 06:42:43;;;;;;;191.83;183.03;;;;;;;;;;4976380;28;20466;-62
2021/08/13 06:45:12;;;;;;;185.00;176.03;;;;;;;;;;4992646;28;20486;-63
2021/08/13 06:47:39;;;;;;;159.00;151.37;;;;;;;;;;4991466;28;20561;-63
2021/08/13 06:50:07;;;;;;;154.67;147.50;;;;;;;;;;4992786;28;20486;-63
2021/08/13 06:52:34;;;;;;;150.00;142.90;;;;;;;;;;4999318;28;20456;-63
2021/08/13 06:55:01;;;;;;;138.20;131.17;;;;;;;;;;5006054;28;20478;-63
2021/08/13 06:57:28;;;;;;;120.70;114.50;;;;;;;;;;4992473;28;20455;-63
2021/08/13 06:59:57;;;;;;;114.40;108.70;;;;;;;;;;5010904;28;20458;-63
2021/08/13 07:02:24;;;;;;;113.70;107.97;;;;;;;;;;5002400;28;20451;-63
2021/08/13 07:04:51;;;;;;;102.27;97.03;;;;;;;;;;4990113;28;20481;-63
2021/08/13 07:07:18;;;;;;;98.60;93.60;;;;;;;;;;5001436;28;20450;-64
2021/08/13 07:09:47;;;;;;;99.90;94.80;;;;;;;;;;4998450;28;20461;-63
2021/08/13 07:12:14;;;;;;;83.60;79.10;;;;;;;;;;5003884;28;20458;-63
2021/08/13 07:14:41;;;;;;;69.90;65.90;;;;;;;;;;5014482;28;20479;-63
2021/08/13 07:17:10;;;;;;;65.73;61.83;;;;;;;;;;5002911;28;21632;-63
2021/08/13 07:19:37;;;;;;;66.50;62.70;;;;;;;;;;5005540;28;20449;-63
2021/08/13 07:22:05;;;;;;;62.80;59.20;;;;;;;;;;5004156;28;20445;-63
2021/08/13 07:24:32;;;;;;;61.80;58.10;;;;;;;;;;5015239;28;20485;-64
2021/08/13 07:27:00;;;;;;;60.00;56.20;;;;;;;;;;5014675;28;20545;-64
2021/08/13 07:29:27;;;;;;;59.37;55.60;;;;;;;;;;5005309;28;20450;-65
2021/08/13 07:31:55;;;;;;;61.80;58.17;;;;;;;;;;5001768;28;21000;-62
2021/08/13 07:34:24;;;;;;;63.13;59.43;;;;;;;;;;5013556;28;20478;-63
2021/08/13 07:36:51;;;;;;;58.30;54.57;;;;;;;;;;5000572;28;20461;-62
2021/08/13 07:39:18;;;;;;;56.33;52.90;;;;;;;;;;5003100;28;20453;-61
2021/08/13 07:41:45;;;;;;;51.67;48.47;;;;;;;;;;5008935;28;20822;-61
2021/08/13 07:44:12;;;;;;;48.57;45.33;;;;;;;;;;4995412;28;20478;-63
2021/08/13 07:46:39;;;;;;;50.77;47.67;;;;;;;;;;4989358;28;20477;-63
2021/08/13 07:49:07;;;;;;;54.43;51.10;;;;;;;;;;4984340;28;20452;-64
2021/08/13 07:51:35;;;;;;;49.07;45.80;;;;;;;;;;4989484;28;20473;-62
2021/08/13 07:54:02;;;;;;;51.03;47.83;;;;;;;;;;5010350;28;20477;-63
2021/08/13 07:56:30;;;;;;;54.97;51.67;;;;;;;;;;4999102;28;20446;-63
2021/08/13 07:58:57;;;;;;;50.67;47.63;;;;;;;;;;4996037;28;20460;-62
2021/08/13 08:01:24;;;;;;;50.90;47.80;;;;;;;;;;5000188;28;20453;-62
2021/08/13 08:03:51;;;;;;;51.23;48.23;;;;;;;;;;4997709;28;20876;-62
2021/08/13 08:06:18;;;;;;;50.67;47.50;;;;;;;;;;4992927;28;20463;-62
2021/08/13 08:08:46;;;;;;;51.23;47.97;;;;;;;;;;4999458;28;20452;-62
2021/08/13 08:11:13;;;;;;;53.20;50.00;;;;;;;;;;4994695;28;20593;-63
2021/08/13 08:13:41;;;;;;;46.63;43.67;;;;;;;;;;4995761;28;20470;-66
2021/08/13 08:16:08;;;;;;;39.83;37.00;;;;;;;;;;5002042;28;20445;-66
2021/08/13 08:18:35;;;;;;;32.47;30.20;;;;;;;;;;4994588;28;20656;-65
2021/08/13 08:21:02;;;;;;;34.53;32.20;;;;;;;;;;4995803;28;20450;-66
2021/08/13 08:23:29;;;;;;;32.53;30.57;;;;;;;;;;4994255;28;20474;-65
2021/08/13 08:25:58;;;;;;;27.13;25.53;;;;;;;;;;5046770;22;20504;-66
2021/08/13 08:28:25;;;;;;;27.83;26.13;;;;;;;;;;5034076;28;20859;-66
2021/08/13 08:30:52;;;;;;;31.33;29.33;;;;;;;;;;5047453;28;20476;-66
2021/08/13 08:33:19;;;;;;;31.73;29.20;;;;;;;;;;5037016;28;20465;-66
2021/08/13 08:35:47;;;;;;;29.07;27.30;;;;;;;;;;5038330;28;20476;-66
2021/08/13 08:38:15;;;;;;;29.87;27.77;;;;;;;;;;5033038;28;20864;-66
2021/08/13 08:40:43;;;;;;;29.47;27.57;;;;;;;;;;5024933;28;20452;-68
2021/08/13 08:43:11;;;;;;;29.77;27.63;;;;;;;;;;5013988;28;20445;-67
2021/08/13 08:45:39;;;;;;;29.07;27.30;;;;;;;;;;5017434;28;20481;-66
2021/08/13 08:48:07;;;;;;;29.03;27.33;;;;;;;;;;5022008;28;20945;-66
2021/08/13 08:50:35;;;;;;;30.13;28.20;;;;;;;;;;5017517;28;20453;-66
2021/08/13 08:53:03;;;;;;;26.93;25.33;;;;;;;;;;5020242;28;20453;-67
2021/08/13 08:55:32;;;;;;;29.40;27.50;;;;;;;;;;5033314;28;20472;-66
2021/08/13 08:58:00;;;;;;;31.50;29.40;;;;;;;;;;5014641;28;20799;-66
2021/08/13 09:00:28;;;;;;;28.87;27.23;;;;;;;;;;5013121;28;20449;-67
2021/08/13 09:02:55;;;;;;;26.50;24.77;;;;;;;;;;5026013;28;20532;-63
2021/08/13 09:05:23;;;;;;;29.70;27.90;;;;;;;;;;5011665;28;20847;-65
2021/08/13 09:07:50;;;;;;;29.30;27.50;;;;;;;;;;5024614;28;20464;-63
2021/08/13 09:10:17;;;;;;;29.20;27.40;;;;;;;;;;5031787;28;20453;-63
2021/08/13 09:12:44;;;;;;;28.60;26.80;;;;;;;;;;5025357;28;20483;-64
2021/08/13 09:15:26;;;;;;;27.30;25.60;;;;;;;;;;5033004;28;21002;-62
2021/08/13 09:18:10;;;;;;;27.50;25.73;;;;;;;;;;5031008;28;20456;-64
2021/08/13 09:20:38;;;;;;;28.27;26.57;;;;;;;;;;5019968;28;20442;-64
2021/08/13 09:23:05;;;;;;;26.00;24.23;;;;;;;;;;5030283;28;20969;-62
2021/08/13 09:25:32;;;;;;;27.43;25.83;;;;;;;;;;5031885;28;20494;-62
2021/08/13 09:27:59;;;;;;;26.63;24.90;;;;;;;;;;5023307;28;20458;-63
2021/08/13 09:30:26;;;;;;;27.77;26.10;;;;;;;;;;5032352;28;20457;-62
2021/08/13 09:32:59;;;;;;;28.53;26.83;;;;;;;;;;5032010;28;20445;-65
2021/08/13 09:35:36;;;;;;;28.67;27.07;;;;;;;;;;5022880;28;20505;-66
2021/08/13 09:38:05;;;;;;;29.70;28.10;;;;;;;;;;5013195;28;20449;-64
2021/08/13 09:40:38;;;;;;;29.97;28.07;;;;;;;;;;5021462;28;20448;-64
2021/08/13 09:43:05;;;;;;;27.93;26.27;;;;;;;;;;5032554;28;20445;-64
2021/08/13 09:45:32;;;;;;;29.23;26.70;;;;;;;;;;5022822;28;20472;-67
2021/08/13 09:48:01;;;;;;;27.83;26.23;;;;;;;;;;5012409;28;20459;-67
2021/08/13 09:50:36;;;;;;;28.20;26.23;;;;;;;;;;5014799;28;20445;-67
2021/08/13 09:53:05;;;;;;;26.37;24.77;;;;;;;;;;5014129;28;20681;-67
2021/08/13 09:55:33;;;;;;;25.57;24.10;;;;;;;;;;5012197;28;20493;-67
2021/08/13 09:58:00;;;;;;;28.33;26.53;;;;;;;;;;5012032;28;20453;-66
2021/08/13 10:00:27;;;;;;;29.10;27.30;;;;;;;;;;5025777;28;20453;-64
2021/08/13 10:03:03;;;;;;;27.90;25.87;;;;;;;;;;5030570;28;20456;-64
2021/08/13 10:05:32;;;;;;;29.20;27.43;;;;;;;;;;5032001;28;20534;-64
2021/08/13 10:08:00;;;;;;;26.80;25.10;;;;;;;;;;5031980;28;20452;-65
2021/08/13 10:10:28;;;;;;;27.57;25.97;;;;;;;;;;5031843;28;20455;-64
2021/08/13 10:12:55;;;;;;;27.40;25.60;;;;;;;;;;5031594;28;20575;-64
2021/08/13 10:15:33;;;;;;;27.27;25.77;;;;;;;;;;5031846;28;20477;-64
2021/08/13 10:18:02;;;;;;;26.53;25.03;;;;;;;;;;5031731;28;20451;-64
2021/08/13 10:20:29;;;;;;;26.83;24.70;;;;;;;;;;5032115;28;20474;-64
2021/08/13 10:22:58;;;;;;;27.57;25.97;;;;;;;;;;5032243;28;20432;-64
2021/08/13 10:25:25;;;;;;;26.40;24.97;;;;;;;;;;5031526;28;20484;-64
2021/08/13 10:27:53;;;;;;;27.27;25.60;;;;;;;;;;5031854;28;20455;-64
2021/08/13 10:30:20;;;;;;;27.17;25.57;;;;;;;;;;5031485;28;20480;-64
2021/08/13 10:32:51;;;;;;;27.63;26.03;;;;;;;;;;5031933;28;20552;-65
2021/08/13 10:35:18;;;;;;;24.57;23.20;;;;;;;;;;5031744;28;20547;-64
2021/08/13 10:37:45;;;;;;;27.50;25.90;;;;;;;;;;5031187;28;20444;-64
2021/08/13 10:40:14;;;;;;;26.63;24.93;;;;;;;;;;5031431;28;20459;-64
2021/08/13 10:42:44;;;;;;;26.37;24.50;;;;;;;;;;5031691;28;20452;-64
2021/08/13 10:45:14;;;;;;;24.10;22.70;;;;;;;;;;5031360;28;20530;-64
2021/08/13 10:47:47;;;;;;;24.80;23.23;;;;;;;;;;5030726;28;20518;-64
2021/08/13 10:50:17;;;;;;;24.80;23.30;;;;;;;;;;5030782;28;20455;-64
2021/08/13 10:52:44;;;;;;;24.80;23.40;;;;;;;;;;5031474;28;20491;-64
2021/08/13 10:55:31;;;;;;;25.43;23.93;;;;;;;;;;5031360;28;20476;-64
2021/08/13 10:58:00;;;;;;;24.30;22.90;;;;;;;;;;5031385;28;20703;-64
2021/08/13 11:00:27;;;;;;;24.90;23.40;;;;;;;;;;5031248;28;20574;-65
2021/08/13 11:03:18;;;;;;;24.43;23.07;;;;;;;;;;5031513;28;20454;-64
2021/08/13 11:05:51;;;;;;;24.90;23.53;;;;;;;;;;5031288;28;20475;-64
2021/08/13 11:08:19;;;;;;;24.33;23.03;;;;;;;;;;5031375;28;20804;-64
2021/08/13 11:10:56;;;;;;;24.20;22.90;;;;;;;;;;5031244;28;20455;-64
2021/08/13 11:13:25;;;;;;;23.93;22.60;;;;;;;;;;5030852;28;20480;-64
2021/08/13 11:15:53;;;;;;;24.80;23.40;;;;;;;;;;5031224;28;20457;-64
2021/08/13 11:18:28;;;;;;;25.83;24.23;;;;;;;;;;5031235;28;20463;-64
2021/08/13 11:20:55;;;;;;;25.60;24.00;;;;;;;;;;5031089;28;20451;-64
2021/08/13 11:23:22;;;;;;;26.33;24.83;;;;;;;;;;5031311;28;20441;-64
2021/08/13 11:25:50;;;;;;;25.30;23.70;;;;;;;;;;5030969;28;20490;-64
2021/08/13 11:28:19;;;;;;;24.30;22.80;;;;;;;;;;5030966;28;20453;-64
2021/08/13 11:30:48;;;;;;;26.03;24.53;;;;;;;;;;5030943;28;20853;-64
2021/08/13 11:33:30;;;;;;;26.10;24.50;;;;;;;;;;5031039;28;20851;-64
2021/08/13 11:35:57;;;;;;;24.70;23.30;;;;;;;;;;5029887;28;20480;-64
2021/08/13 11:38:39;;;;;;;26.00;24.50;;;;;;;;;;5031112;28;20452;-64
2021/08/13 11:41:24;;;;;;;25.67;23.97;;;;;;;;;;5030991;28;20455;-64
2021/08/13 11:43:52;;;;;;;25.67;23.93;;;;;;;;;;5030975;28;20444;-64
2021/08/13 11:46:25;;;;;;;26.20;24.60;;;;;;;;;;5031048;28;20475;-64
2021/08/13 11:48:55;;;;;;;26.27;24.67;;;;;;;;;;5030664;28;20950;-64
2021/08/13 11:51:22;;;;;;;24.80;23.30;;;;;;;;;;5030956;28;20459;-64
2021/08/13 11:53:49;;;;;;;25.93;24.43;;;;;;;;;;5031196;28;20478;-64
2021/08/13 11:56:26;;;;;;;25.70;24.00;;;;;;;;;;5030860;28;20477;-64
2021/08/13 11:59:00;;;;;;;25.10;23.70;;;;;;;;;;5033034;28;20468;-64
2021/08/13 12:01:29;;;;;;;26.60;25.10;;;;;;;;;;5034611;28;20447;-64
2021/08/13 12:03:56;;;;;;;26.43;24.97;;;;;;;;;;5034048;28;20954;-64
2021/08/13 12:06:24;;;;;;;26.20;24.60;;;;;;;;;;5034538;28;20448;-64
2021/08/13 12:08:51;;;;;;;27.80;26.10;;;;;;;;;;5034794;28;20455;-64
2021/08/13 12:11:22;;;;;;;26.30;24.60;;;;;;;;;;5034337;28;20453;-64
2021/08/13 12:13:50;;;;;;;25.90;24.50;;;;;;;;;;5034639;28;20448;-64
2021/08/13 12:16:18;;;;;;;25.23;23.73;;;;;;;;;;5033879;28;20468;-64
2021/08/13 12:18:47;;;;;;;25.97;24.47;;;;;;;;;;5034336;28;20535;-64
2021/08/13 12:21:15;;;;;;;24.80;23.30;;;;;;;;;;5034183;28;20502;-64
2021/08/13 12:23:53;;;;;;;25.40;23.90;;;;;;;;;;5034417;28;20459;-64
2021/08/13 12:26:25;;;;;;;26.13;24.43;;;;;;;;;;5033711;28;20484;-64
2021/08/13 12:28:52;;;;;;;25.93;24.43;;;;;;;;;;5034116;28;20448;-64
2021/08/13 12:31:19;;;;;;;25.93;24.40;;;;;;;;;;5033829;28;20535;-64
2021/08/13 12:33:54;;;;;;;26.03;24.53;;;;;;;;;;5033916;28;20837;-64
2021/08/13 12:36:21;;;;;;;26.50;25.00;;;;;;;;;;5034245;28;20440;-64
2021/08/13 12:38:54;;;;;;;26.43;24.90;;;;;;;;;;5033669;28;20463;-64
2021/08/13 12:41:21;;;;;;;28.17;26.53;;;;;;;;;;5033808;28;20448;-64
2021/08/13 12:43:49;;;;;;;25.63;24.13;;;;;;;;;;5033748;28;20770;-64
2021/08/13 12:46:17;;;;;;;24.93;23.53;;;;;;;;;;5034020;28;20476;-64
2021/08/13 12:48:44;;;;;;;26.03;24.53;;;;;;;;;;5033439;28;20459;-64
2021/08/13 12:51:25;;;;;;;25.53;24.03;;;;;;;;;;5033674;28;20465;-64
2021/08/13 12:53:53;;;;;;;25.37;23.80;;;;;;;;;;5033628;28;20828;-64
2021/08/13 12:56:21;;;;;;;26.90;25.33;;;;;;;;;;5033396;28;20548;-64
2021/08/13 12:58:48;;;;;;;27.27;25.47;;;;;;;;;;5033494;28;20449;-64
2021/08/13 13:01:25;;;;;;;26.10;24.70;;;;;;;;;;5033199;28;20908;-64
2021/08/13 13:04:05;;;;;;;26.57;25.00;;;;;;;;;;5033464;28;20449;-64
2021/08/13 13:06:34;;;;;;;25.60;24.10;;;;;;;;;;5033219;28;20819;-64
2021/08/13 13:09:01;;;;;;;27.43;25.83;;;;;;;;;;5033599;28;20452;-64
2021/08/13 13:11:29;;;;;;;25.70;24.07;;;;;;;;;;5032279;28;20818;-64
2021/08/13 13:13:57;;;;;;;26.00;24.50;;;;;;;;;;5033007;28;20491;-64
2021/08/13 13:16:24;;;;;;;26.80;25.20;;;;;;;;;;5033645;28;20452;-64
2021/08/13 13:18:52;;;;;;;25.30;23.70;;;;;;;;;;5033370;28;20453;-64
2021/08/13 13:21:23;;;;;;;27.10;25.50;;;;;;;;;;5032594;28;20449;-64
2021/08/13 13:23:52;;;;;;;25.20;23.80;;;;;;;;;;5033058;28;20453;-64
2021/08/13 13:26:19;;;;;;;25.10;23.70;;;;;;;;;;5032756;28;21019;-64
2021/08/13 13:28:48;;;;;;;26.07;24.57;;;;;;;;;;5033210;28;20480;-64
2021/08/13 13:31:17;;;;;;;25.27;23.67;;;;;;;;;;5032919;28;20448;-64
2021/08/13 13:33:44;;;;;;;25.80;24.10;;;;;;;;;;5032693;28;20707;-64
2021/08/13 13:36:11;;;;;;;26.67;24.87;;;;;;;;;;5032783;28;20476;-64
2021/08/13 13:38:39;;;;;;;27.93;26.23;;;;;;;;;;5032741;28;20456;-64
2021/08/13 13:41:09;;;;;;;23.87;22.57;;;;;;;;;;5032526;28;20457;-64
2021/08/13 13:43:36;;;;;;;25.70;24.20;;;;;;;;;;5032500;28;20485;-64
2021/08/13 13:46:04;;;;;;;25.37;23.97;;;;;;;;;;5032603;28;20465;-64
2021/08/13 13:48:31;;;;;;;27.43;25.63;;;;;;;;;;5027969;28;20467;-64
2021/08/13 13:50:58;;;;;;;27.30;25.70;;;;;;;;;;5028477;28;20452;-64
2021/08/13 13:53:25;;;;;;;28.33;26.33;;;;;;;;;;5012961;28;20488;-64
2021/08/13 13:55:52;;;;;;;28.37;26.77;;;;;;;;;;5023584;28;20472;-64
2021/08/13 13:58:21;;;;;;;27.60;25.97;;;;;;;;;;5010776;28;20997;-64
2021/08/13 14:00:49;;;;;;;28.53;26.87;;;;;;;;;;5032317;28;20444;-64
2021/08/13 14:03:16;;;;;;;27.30;25.80;;;;;;;;;;5032750;28;20449;-64
2021/08/13 14:05:43;;;;;;;28.60;26.77;;;;;;;;;;5032275;28;20473;-64
2021/08/13 14:08:11;;;;;;;28.13;26.50;;;;;;;;;;5030365;28;20465;-64
2021/08/13 14:10:39;;;;;;;27.33;25.80;;;;;;;;;;5032333;28;20539;-64
2021/08/13 14:13:07;;;;;;;29.07;27.37;;;;;;;;;;5032221;28;20578;-64
2021/08/13 14:15:37;;;;;;;31.23;29.33;;;;;;;;;;5016571;28;21012;-64
2021/08/13 14:18:04;;;;;;;32.17;30.27;;;;;;;;;;5012523;28;20450;-64